Terminal Aerodrome Forecast
Issued by NWS Salt Lake City, UT

Home | Current Version | Previous Version | Text Only | Print | Product List | Glossary On
Versions: 1 2 3 4 5 6 7 8 9 10 11 12 13 14 15 16 17 18 19 20 21 22 23 24 25 26 27 28 29 30 31 32
000
FTUS45 KSLC 221528 AAA
TAFCDC
TAF AMD
KCDC 221528Z 2215/2312 18008KT P6SM SKC
     FM221700 22013G23KT P6SM SCT100
     FM222000 22020G30KT P6SM SCT060 BKN120
     FM230200 32010KT 1SM -SN BR OVC015
     FM230800 35009KT P6SM VCSH BKN030 BKN050
     FM231000 32005KT P6SM SCT050=

USA.gov is the U.S. government's official web portal to all federal, state and local government web resources and services.